createdAt,value
2022-08-03T00:00:51.289Z,77.99
2022-08-03T00:01:51.253Z,81.73
2022-08-03T00:02:51.302Z,81.82
2022-08-03T00:03:51.242Z,81.42
2022-08-03T00:04:51.238Z,80.01
2022-08-03T00:06:04.825Z,79.44
2022-08-03T00:06:52.193Z,78.84
2022-08-03T00:07:51.186Z,79.34
2022-08-03T00:08:51.162Z,78.74
2022-08-03T00:09:51.163Z,83.68
2022-08-03T00:10:51.133Z,83.58
2022-08-03T00:11:51.123Z,81.56
2022-08-03T00:12:51.111Z,79.04
2022-08-03T00:13:51.092Z,77.53
2022-08-03T00:14:51.104Z,78.13
2022-08-03T00:15:51.071Z,81.67
2022-08-03T00:16:51.062Z,84.99
2022-08-03T00:17:52.916Z,86.81
2022-08-03T00:18:51.030Z,87.32
2022-08-03T00:19:51.025Z,87.72
2022-08-03T00:20:51.011Z,87.96
2022-08-03T00:21:51.012Z,87.56
2022-08-03T00:22:50.983Z,86.95
2022-08-03T00:23:52.866Z,86.55
2022-08-03T00:24:50.963Z,85.54
2022-08-03T00:25:50.931Z,82.81
2022-08-03T00:26:50.913Z,81.20
2022-08-03T00:27:50.936Z,80.59
2022-08-03T00:28:50.920Z,81.50
2022-08-03T00:29:57.446Z,82.41
2022-08-03T00:30:51.873Z,82.21
2022-08-03T00:31:59.142Z,81.80
2022-08-03T00:32:51.843Z,83.72
2022-08-03T00:33:59.751Z,84.33
2022-08-03T00:34:57.760Z,84.33
2022-08-03T00:35:51.823Z,81.70
2022-08-03T00:36:50.794Z,79.79
2022-08-03T00:37:50.793Z,79.01
2022-08-03T00:38:50.754Z,78.81
2022-08-03T00:39:50.743Z,79.32
2022-08-03T00:40:50.734Z,78.50
2022-08-03T00:41:50.743Z,79.21
2022-08-03T00:42:50.738Z,77.19
2022-08-03T00:43:50.684Z,76.69
2022-08-03T00:44:50.684Z,76.39
2022-08-03T00:45:50.674Z,79.32
2022-08-03T00:46:50.653Z,80.02
2022-08-03T00:47:50.632Z,80.32
2022-08-03T00:48:50.633Z,82.65
2022-08-03T00:49:50.631Z,81.44
2022-08-03T00:50:50.633Z,80.73
2022-08-03T00:51:50.583Z,82.24
2022-08-03T00:52:50.573Z,83.56
2022-08-03T00:53:50.553Z,82.35
2022-08-03T00:54:50.564Z,81.03
2022-08-03T00:55:50.523Z,79.01
2022-08-03T00:56:59.239Z,77.70
2022-08-03T00:57:51.506Z,83.56
2022-08-03T00:58:50.502Z,84.97
2022-08-03T00:59:50.473Z,83.76
2022-08-03T01:00:50.533Z,81.54
2022-08-03T01:01:50.596Z,81.54
2022-08-03T01:02:50.433Z,86.39
2022-08-03T01:03:50.432Z,87.10
2022-08-03T01:04:50.412Z,87.74
2022-08-03T01:05:50.394Z,88.04
2022-08-03T01:06:50.374Z,88.35
2022-08-03T01:07:50.361Z,90.07
2022-08-03T01:08:50.374Z,89.66
2022-08-03T01:09:50.332Z,89.56
2022-08-03T01:10:50.345Z,89.61
2022-08-03T01:12:00.555Z,89.91
2022-08-03T01:12:51.296Z,90.01
2022-08-03T01:14:02.059Z,90.01
2022-08-03T01:14:51.274Z,89.30
2022-08-03T01:15:50.265Z,88.09
2022-08-03T01:16:50.253Z,86.77
2022-08-03T01:17:50.230Z,84.75
2022-08-03T01:18:50.235Z,85.76
2022-08-03T01:19:50.203Z,85.25
2022-08-03T01:20:50.193Z,86.07
2022-08-03T01:21:50.182Z,84.75
2022-08-03T01:22:50.182Z,83.13
2022-08-03T01:23:50.186Z,84.04
2022-08-03T01:24:50.143Z,82.93
2022-08-03T01:25:54.359Z,83.44
2022-08-03T01:26:50.113Z,82.83
2022-08-03T01:27:50.093Z,83.23
2022-08-03T01:28:50.123Z,82.53
2022-08-03T01:29:50.072Z,81.62
2022-08-03T01:30:50.062Z,80.71
2022-08-03T01:32:58.244Z,80.50
2022-08-03T01:33:00.187Z,82.42
2022-08-03T01:33:51.025Z,81.21
2022-08-03T01:34:50.016Z,82.62
2022-08-03T01:35:49.995Z,84.85
2022-08-03T01:36:49.992Z,85.96
2022-08-03T01:37:49.963Z,84.45
2022-08-03T01:38:49.971Z,82.32
2022-08-03T01:39:49.940Z,80.71
2022-08-03T01:40:49.932Z,81.31
2022-08-03T01:41:49.931Z,80.20
2022-08-03T01:42:49.902Z,81.31
2022-08-03T01:44:26.732Z,82.32
2022-08-03T01:44:50.872Z,84.25
2022-08-03T01:45:49.853Z,85.25
2022-08-03T01:46:49.833Z,86.87
2022-08-03T01:47:49.834Z,87.99
2022-08-03T01:48:49.842Z,88.19
2022-08-03T01:49:49.898Z,88.94
2022-08-03T01:50:49.791Z,89.54
2022-08-03T01:51:58.662Z,89.24
2022-08-03T01:52:50.756Z,87.82
2022-08-03T01:53:49.772Z,85.90
2022-08-03T01:54:49.751Z,85.39
2022-08-03T01:55:49.727Z,84.08
2022-08-03T01:56:49.731Z,82.26
2022-08-03T01:58:05.892Z,81.15
2022-08-03T01:58:50.702Z,80.54
2022-08-03T01:59:49.694Z,81.05
2022-08-03T02:00:49.696Z,82.26
2022-08-03T02:02:16.065Z,83.78
2022-08-03T02:02:50.725Z,84.79
2022-08-03T02:04:00.809Z,85.39
2022-08-03T02:04:50.602Z,85.50
2022-08-03T02:05:54.135Z,84.79
2022-08-03T02:07:01.874Z,83.68
2022-08-03T02:07:50.561Z,83.07
2022-08-03T02:08:49.592Z,81.76
2022-08-03T02:09:49.581Z,82.26
2022-08-03T02:10:49.511Z,81.90
2022-08-03T02:11:49.512Z,80.47
2022-08-03T02:12:51.166Z,80.78
2022-08-03T02:13:49.491Z,80.47
2022-08-03T02:14:49.471Z,80.68
2022-08-03T02:15:49.462Z,81.69
2022-08-03T02:16:49.462Z,79.77
2022-08-03T02:17:49.431Z,82.50
2022-08-03T02:18:49.420Z,83.01
2022-08-03T02:19:49.404Z,84.12
2022-08-03T02:20:49.380Z,84.93
2022-08-03T02:21:56.602Z,82.70
2022-08-03T02:22:50.360Z,81.79
2022-08-03T02:23:49.362Z,81.49
2022-08-03T02:24:51.219Z,80.47
2022-08-03T02:25:49.321Z,79.16
2022-08-03T02:26:49.301Z,80.88
2022-08-03T02:27:49.293Z,81.49
2022-08-03T02:28:49.321Z,79.46
2022-08-03T02:29:49.281Z,78.66
2022-08-03T02:30:53.702Z,77.54
2022-08-03T02:31:49.251Z,79.26
2022-08-03T02:32:49.230Z,78.15
2022-08-03T02:33:49.231Z,80.18
2022-08-03T02:34:49.202Z,81.79
2022-08-03T02:35:49.200Z,84.63
2022-08-03T02:36:49.180Z,83.92
2022-08-03T02:37:49.923Z,82.30
2022-08-03T02:38:49.168Z,80.98
2022-08-03T02:39:49.153Z,80.58
2022-08-03T02:40:49.113Z,80.47
2022-08-03T02:41:49.132Z,83.21
2022-08-03T02:42:49.101Z,84.02
2022-08-03T02:44:06.391Z,83.51
2022-08-03T02:44:50.100Z,82.50
2022-08-03T02:45:49.056Z,81.39
2022-08-03T02:46:49.031Z,81.09
2022-08-03T02:47:53.892Z,80.41
2022-08-03T02:48:50.021Z,79.00
2022-08-03T02:49:51.548Z,78.19
2022-08-03T02:50:48.990Z,78.69
2022-08-03T02:51:48.980Z,79.71
2022-08-03T02:52:48.961Z,78.79
2022-08-03T02:53:48.943Z,78.39
2022-08-03T02:54:48.940Z,79.50
2022-08-03T02:55:48.931Z,79.00
2022-08-03T02:56:48.912Z,80.82
2022-08-03T02:57:48.912Z,79.60
2022-08-03T02:58:48.882Z,79.50
2022-08-03T02:59:48.870Z,78.69
2022-08-03T03:00:48.921Z,81.43
2022-08-03T03:01:48.861Z,81.83
2022-08-03T03:02:48.833Z,80.31
2022-08-03T03:03:48.818Z,82.34
2022-08-03T03:05:55.047Z,83.45
2022-08-03T03:05:56.408Z,85.99
2022-08-03T03:06:49.773Z,87.20
2022-08-03T03:07:51.922Z,86.79
2022-08-03T03:08:48.768Z,86.29
2022-08-03T03:09:48.740Z,86.69
2022-08-03T03:10:48.734Z,87.30
2022-08-03T03:11:49.719Z,87.71
2022-08-03T03:12:48.700Z,88.11
2022-08-03T03:13:48.689Z,88.01
2022-08-03T03:14:48.679Z,88.21
2022-08-03T03:15:48.663Z,87.71
2022-08-03T03:16:50.618Z,85.38
2022-08-03T03:17:48.650Z,83.55
2022-08-03T03:18:48.610Z,81.46
2022-08-03T03:19:48.609Z,79.85
2022-08-03T03:20:48.580Z,80.35
2022-08-03T03:21:48.599Z,79.85
2022-08-03T03:22:48.578Z,79.24
2022-08-03T03:23:48.550Z,79.74
2022-08-03T03:24:48.550Z,79.94
2022-08-03T03:25:48.520Z,80.35
2022-08-03T03:26:48.507Z,81.67
2022-08-03T03:27:49.410Z,81.06
2022-08-03T03:28:48.490Z,83.29
2022-08-03T03:29:48.478Z,83.49
2022-08-03T03:30:52.652Z,83.80
2022-08-03T03:31:48.450Z,84.41
2022-08-03T03:32:48.429Z,86.22
2022-08-03T03:33:48.409Z,87.71
2022-08-03T03:34:48.408Z,88.62
2022-08-03T03:35:48.399Z,89.17
2022-08-03T03:36:48.379Z,90.03
2022-08-03T03:37:48.380Z,90.38
2022-08-03T03:38:48.358Z,89.98
2022-08-03T03:39:48.370Z,89.98
2022-08-03T03:40:48.321Z,88.86
2022-08-03T03:41:48.320Z,88.46
2022-08-03T03:42:48.307Z,87.24
2022-08-03T03:43:48.286Z,85.82
2022-08-03T03:44:48.270Z,84.91
2022-08-03T03:45:48.259Z,84.41
2022-08-03T03:46:48.246Z,82.48
2022-08-03T03:47:48.239Z,81.16
2022-08-03T03:48:48.238Z,81.97
2022-08-03T03:49:48.208Z,82.07
2022-08-03T03:50:48.189Z,80.86
2022-08-03T03:51:48.188Z,80.76
2022-08-03T03:52:48.169Z,80.35
2022-08-03T03:53:48.148Z,80.55
2022-08-03T03:54:48.150Z,80.05
2022-08-03T03:55:59.316Z,79.24
2022-08-03T03:56:49.129Z,79.13
2022-08-03T03:57:48.130Z,78.42
2022-08-03T03:58:48.088Z,78.33
2022-08-03T03:59:48.078Z,81.26
2022-08-03T04:00:48.120Z,81.77
2022-08-03T04:01:48.079Z,80.86
2022-08-03T04:02:49.038Z,78.93
2022-08-03T04:03:48.047Z,79.44
2022-08-03T04:04:48.018Z,80.65
2022-08-03T04:05:47.998Z,80.82
2022-08-03T04:06:47.977Z,83.35
2022-08-03T04:07:47.978Z,85.17
2022-08-03T04:08:47.959Z,85.27
2022-08-03T04:09:47.949Z,85.58
2022-08-03T04:10:47.920Z,85.88
2022-08-03T04:11:47.929Z,83.76
2022-08-03T04:12:50.423Z,81.93
2022-08-03T04:13:47.887Z,80.01
2022-08-03T04:14:47.878Z,78.69
2022-08-03T04:15:47.868Z,78.89
2022-08-03T04:16:47.860Z,80.92
2022-08-03T04:17:47.839Z,80.62
2022-08-03T04:18:47.826Z,80.82
2022-08-03T04:19:47.820Z,82.54
2022-08-03T04:20:47.812Z,81.32
2022-08-03T04:21:47.807Z,79.60
2022-08-03T04:22:47.768Z,78.89
2022-08-03T04:23:47.767Z,78.08
2022-08-03T04:24:47.738Z,77.64
2022-08-03T04:25:47.717Z,78.05
2022-08-03T04:26:52.338Z,78.45
2022-08-03T04:28:08.235Z,78.86
2022-08-03T04:28:48.688Z,79.36
2022-08-03T04:29:48.474Z,79.97
2022-08-03T04:30:47.656Z,81.99
2022-08-03T04:31:47.668Z,82.36
2022-08-03T04:32:47.627Z,82.56
2022-08-03T04:33:47.617Z,80.74
2022-08-03T04:34:47.618Z,78.21
2022-08-03T04:36:01.071Z,78.52
2022-08-03T04:36:48.579Z,79.43
2022-08-03T04:37:47.567Z,80.40
2022-08-03T04:38:47.547Z,80.71
2022-08-03T04:39:47.538Z,80.80
2022-08-03T04:40:47.525Z,80.80
2022-08-03T04:42:06.711Z,80.80
2022-08-03T04:42:48.511Z,80.00
2022-08-03T04:43:47.497Z,81.57
2022-08-03T04:44:47.482Z,82.39
2022-08-03T04:45:47.458Z,82.95
2022-08-03T04:46:52.750Z,84.17
2022-08-03T04:47:48.438Z,84.93
2022-08-03T04:48:47.436Z,85.05
2022-08-03T04:49:47.417Z,84.31
2022-08-03T04:50:47.407Z,83.32
2022-08-03T04:51:47.395Z,82.94
2022-08-03T04:52:47.367Z,81.49
2022-08-03T04:53:47.362Z,79.30
2022-08-03T04:54:50.539Z,78.22
2022-08-03T04:55:47.357Z,76.34
2022-08-03T04:56:47.318Z,74.67
2022-08-03T04:57:47.297Z,72.00
2022-08-03T04:58:47.288Z,71.33
2022-08-03T04:59:47.281Z,70.16
2022-08-03T05:00:47.249Z,69.53
2022-08-03T05:01:47.330Z,67.66
2022-08-03T05:02:47.238Z,66.30
2022-08-03T05:03:47.218Z,66.07
2022-08-03T05:04:47.213Z,64.61
2022-08-03T05:05:49.644Z,63.59
2022-08-03T05:06:48.070Z,62.23
2022-08-03T05:07:47.158Z,60.52
2022-08-03T05:08:48.876Z,60.28
2022-08-03T05:09:52.313Z,60.33
2022-08-03T05:10:48.129Z,58.32
2022-08-03T05:11:47.137Z,58.29
2022-08-03T05:12:47.093Z,57.04
2022-08-03T05:13:47.089Z,56.42
2022-08-03T05:14:47.079Z,54.02
2022-08-03T05:15:47.074Z,53.82
2022-08-03T05:16:47.062Z,54.27
2022-08-03T05:17:47.040Z,52.39
2022-08-03T05:18:47.034Z,52.46
2022-08-03T05:19:47.010Z,52.34
2022-08-03T05:20:46.989Z,52.19
2022-08-03T05:21:52.543Z,50.88
2022-08-03T05:22:47.979Z,49.67
2022-08-03T05:23:46.965Z,49.35
2022-08-03T05:24:46.941Z,48.14
2022-08-03T05:25:50.006Z,48.82
2022-08-03T05:26:46.923Z,47.14
2022-08-03T05:27:46.911Z,47.22
2022-08-03T05:28:51.022Z,46.41
2022-08-03T05:29:46.885Z,47.39
2022-08-03T05:30:46.865Z,45.79
2022-08-03T05:31:46.871Z,45.57
2022-08-03T05:32:46.840Z,45.55
2022-08-03T05:33:46.822Z,45.16
2022-08-03T05:34:46.812Z,45.43
2022-08-03T05:36:00.449Z,43.74
2022-08-03T05:36:47.792Z,43.13
2022-08-03T05:37:54.579Z,43.12
2022-08-03T05:38:47.765Z,42.90
2022-08-03T05:39:46.755Z,42.97
2022-08-03T05:40:56.622Z,41.58
2022-08-03T05:41:47.754Z,41.19
2022-08-03T05:42:46.704Z,41.68
2022-08-03T05:43:46.711Z,40.78
2022-08-03T05:44:46.685Z,40.68
2022-08-03T05:45:46.667Z,40.68
2022-08-03T05:46:47.663Z,40.76
2022-08-03T05:47:46.662Z,40.25
2022-08-03T05:48:46.636Z,38.89
2022-08-03T05:49:46.625Z,40.04
2022-08-03T05:50:46.605Z,39.75
2022-08-03T05:51:46.616Z,38.94
2022-08-03T05:52:47.576Z,39.31
2022-08-03T05:53:46.605Z,38.90
2022-08-03T05:54:57.496Z,39.00
2022-08-03T05:55:51.311Z,37.33
2022-08-03T05:56:47.567Z,37.62
2022-08-03T05:57:46.539Z,37.73
2022-08-03T05:58:46.721Z,38.40
2022-08-03T05:59:57.851Z,37.33
2022-08-03T06:00:47.501Z,36.65
2022-08-03T06:01:46.555Z,37.91
2022-08-03T06:02:46.468Z,37.12
2022-08-03T06:03:46.460Z,36.72
2022-08-03T06:04:46.458Z,36.92
2022-08-03T06:06:00.356Z,36.80
2022-08-03T06:06:47.417Z,37.26
2022-08-03T06:07:46.409Z,35.78
2022-08-03T06:08:46.388Z,35.68
2022-08-03T06:10:34.943Z,35.27
2022-08-03T06:10:47.364Z,35.35
2022-08-03T06:11:46.348Z,35.43
2022-08-03T06:12:46.329Z,34.95
2022-08-03T06:13:46.321Z,34.35
2022-08-03T06:14:46.312Z,35.71
2022-08-03T06:15:46.291Z,35.21
2022-08-03T06:16:46.973Z,34.43
2022-08-03T06:17:46.272Z,34.43
2022-08-03T06:18:46.260Z,34.51
2022-08-03T06:19:46.251Z,34.02
2022-08-03T06:20:47.119Z,32.94
2022-08-03T06:21:46.223Z,33.99
2022-08-03T06:22:51.218Z,33.60
2022-08-03T06:23:54.764Z,33.20
2022-08-03T06:24:51.547Z,32.91
2022-08-03T06:25:47.191Z,32.60
2022-08-03T06:26:46.161Z,32.20
2022-08-03T06:27:46.153Z,31.89
2022-08-03T06:28:51.482Z,31.31
2022-08-03T06:29:47.134Z,31.02
2022-08-03T06:30:46.131Z,31.31
2022-08-03T06:31:46.105Z,30.63
2022-08-03T06:32:51.849Z,31.52
2022-08-03T06:34:30.808Z,30.85
2022-08-03T06:34:47.078Z,30.93
2022-08-03T06:35:46.098Z,30.24
2022-08-03T06:36:46.034Z,30.91
2022-08-03T06:37:46.038Z,30.04
2022-08-03T06:38:46.030Z,30.91
2022-08-03T06:39:46.004Z,31.48
2022-08-03T06:40:46.015Z,31.07
2022-08-03T06:41:45.989Z,31.07
2022-08-03T06:42:45.985Z,30.98
2022-08-03T06:44:03.117Z,30.58
2022-08-03T06:44:46.944Z,30.38
2022-08-03T06:45:45.936Z,30.66
2022-08-03T06:46:45.955Z,31.04
2022-08-03T06:47:45.923Z,29.98
2022-08-03T06:48:45.897Z,30.07
2022-08-03T06:50:13.017Z,29.58
2022-08-03T06:50:46.897Z,30.16
2022-08-03T06:52:03.848Z,28.91
2022-08-03T06:52:46.880Z,29.39
2022-08-03T06:53:45.838Z,29.10
2022-08-03T06:54:45.858Z,29.39
2022-08-03T06:55:45.829Z,28.41
2022-08-03T06:56:45.813Z,28.52
2022-08-03T06:57:45.799Z,29.41
2022-08-03T06:58:45.779Z,30.35
2022-08-03T07:00:07.775Z,30.64
2022-08-03T07:00:46.797Z,30.53
2022-08-03T07:01:45.767Z,30.34
2022-08-03T07:02:45.741Z,28.78
2022-08-03T07:03:52.156Z,28.97
2022-08-03T07:04:46.724Z,29.07
2022-08-03T07:05:45.720Z,29.46
2022-08-03T07:06:45.702Z,29.15
2022-08-03T07:07:45.674Z,28.48
2022-08-03T07:08:46.408Z,28.85
2022-08-03T07:09:57.100Z,29.22
2022-08-03T07:10:46.654Z,29.30
2022-08-03T07:11:45.621Z,27.75
2022-08-03T07:12:55.815Z,26.70
2022-08-03T07:13:46.595Z,27.08
2022-08-03T07:14:45.592Z,27.38
2022-08-03T07:15:55.249Z,28.05
2022-08-03T07:16:46.573Z,28.23
2022-08-03T07:17:45.555Z,27.56
2022-08-03T07:18:45.564Z,26.68
2022-08-03T07:19:45.547Z,26.48
2022-08-03T07:20:45.534Z,27.44
2022-08-03T07:21:45.504Z,26.28
2022-08-03T07:22:45.514Z,26.49
2022-08-03T07:23:45.477Z,28.31
2022-08-03T07:24:45.468Z,28.50
2022-08-03T07:25:45.473Z,27.83
2022-08-03T07:26:45.443Z,26.78
2022-08-03T07:27:50.026Z,28.52
2022-08-03T07:28:46.414Z,27.56
2022-08-03T07:29:45.403Z,28.23
2022-08-03T07:30:45.414Z,27.08
2022-08-03T07:31:45.375Z,26.97
2022-08-03T07:32:50.223Z,27.73
2022-08-03T07:33:46.386Z,27.26
2022-08-03T07:34:45.356Z,27.27
2022-08-03T07:35:45.346Z,28.42
2022-08-03T07:36:45.336Z,27.93
2022-08-03T07:37:54.543Z,27.26
2022-08-03T07:38:46.307Z,28.30
2022-08-03T07:39:45.295Z,27.34
2022-08-03T07:40:46.437Z,26.46
2022-08-03T07:41:45.266Z,26.54
2022-08-03T07:42:45.276Z,26.82
2022-08-03T07:43:45.246Z,26.06
2022-08-03T07:44:45.233Z,25.96
2022-08-03T07:45:45.226Z,26.25
2022-08-03T07:46:45.208Z,27.11
2022-08-03T07:47:46.240Z,26.82
2022-08-03T07:48:46.205Z,25.56
2022-08-03T07:49:45.257Z,26.33
2022-08-03T07:50:45.169Z,25.18
2022-08-03T07:51:45.138Z,25.86
2022-08-03T07:52:45.159Z,27.00
2022-08-03T07:53:47.811Z,25.75
2022-08-03T07:54:45.118Z,25.85
2022-08-03T07:55:45.099Z,26.90
2022-08-03T07:56:45.089Z,25.95
2022-08-03T07:57:45.071Z,25.38
2022-08-03T07:58:45.098Z,26.64
2022-08-03T07:59:57.224Z,25.98
2022-08-03T08:00:46.053Z,25.89
2022-08-03T08:01:45.055Z,27.12
2022-08-03T08:02:45.021Z,25.87
2022-08-03T08:03:53.396Z,26.64
2022-08-03T08:04:45.987Z,27.50
2022-08-03T08:05:45.021Z,26.45
2022-08-03T08:06:44.982Z,27.03
2022-08-03T08:07:50.982Z,25.79
2022-08-03T08:08:45.971Z,25.89
2022-08-03T08:09:44.933Z,26.18
2022-08-03T08:10:58.351Z,26.54
2022-08-03T08:11:45.901Z,27.50
2022-08-03T08:12:44.904Z,27.31
2022-08-03T08:13:44.878Z,26.74
2022-08-03T08:14:44.872Z,26.18
2022-08-03T08:15:44.862Z,26.27
2022-08-03T08:16:44.842Z,26.65
2022-08-03T08:17:44.832Z,26.94
2022-08-03T08:18:44.843Z,25.98
2022-08-03T08:19:51.608Z,25.70
2022-08-03T08:20:45.815Z,26.65
2022-08-03T08:22:02.017Z,25.79
2022-08-03T08:22:45.774Z,24.45
2022-08-03T08:23:47.086Z,25.70
2022-08-03T08:24:45.754Z,26.27
2022-08-03T08:25:44.772Z,26.94
2022-08-03T08:26:44.723Z,25.49
2022-08-03T08:28:29.976Z,25.78
2022-08-03T08:28:45.723Z,25.01
2022-08-03T08:29:53.126Z,24.91
2022-08-03T08:30:45.685Z,25.20
2022-08-03T08:31:44.667Z,26.07
2022-08-03T08:32:44.685Z,25.40
2022-08-03T08:34:45.631Z,26.74
2022-08-03T08:35:44.626Z,24.73
2022-08-03T08:36:44.606Z,24.82
2022-08-03T08:37:50.906Z,24.91
2022-08-03T08:38:45.596Z,21.18
2022-08-03T08:39:44.576Z,21.77
2022-08-03T08:40:44.578Z,21.58
2022-08-03T08:41:45.939Z,24.48
2022-08-03T08:42:57.526Z,24.48
2022-08-03T08:43:45.516Z,24.19
2022-08-03T08:44:44.528Z,21.59
2022-08-03T08:45:44.507Z,21.99
2022-08-03T08:46:44.487Z,22.29
2022-08-03T08:47:50.804Z,23.06
2022-08-03T08:48:45.459Z,21.32
2022-08-03T08:50:03.868Z,22.29
2022-08-03T08:50:45.478Z,21.62
2022-08-03T08:51:59.232Z,22.89
2022-08-03T08:52:45.429Z,23.67
2022-08-03T08:53:44.402Z,24.82
2022-08-03T08:54:44.428Z,24.26
2022-08-03T08:55:58.016Z,25.98
2022-08-03T08:56:45.369Z,25.12
2022-08-03T08:57:44.352Z,22.63
2022-08-03T08:58:44.379Z,22.93
2022-08-03T08:59:48.275Z,24.38
2022-08-03T09:00:45.365Z,23.72
2022-08-03T09:01:44.310Z,24.50
2022-08-03T09:02:44.291Z,25.19
2022-08-03T09:03:44.284Z,25.29
2022-08-03T09:04:44.291Z,25.02
2022-08-03T09:05:55.901Z,27.04
2022-08-03T09:07:04.410Z,24.54
2022-08-03T09:07:45.231Z,26.09
2022-08-03T09:08:44.244Z,26.57
2022-08-03T09:10:07.539Z,26.68
2022-08-03T09:10:45.191Z,28.33
2022-08-03T09:12:00.942Z,28.03
2022-08-03T09:12:45.186Z,26.67
2022-08-03T09:13:44.165Z,25.21
2022-08-03T09:15:00.841Z,24.73
2022-08-03T09:16:00.558Z,26.37
2022-08-03T09:16:45.144Z,27.04
2022-08-03T09:17:47.668Z,24.63
2022-08-03T09:18:45.124Z,27.34
2022-08-03T09:20:03.511Z,29.06
2022-08-03T09:20:45.104Z,27.23
2022-08-03T09:21:44.083Z,27.50
2022-08-03T09:22:44.063Z,27.02
2022-08-03T09:23:51.517Z,23.45
2022-08-03T09:24:45.044Z,22.67
2022-08-03T09:25:44.035Z,24.33
2022-08-03T09:26:44.017Z,25.01
2022-08-03T09:27:44.025Z,24.33
2022-08-03T09:28:59.824Z,24.54
2022-08-03T09:29:45.449Z,26.08
2022-08-03T09:30:44.025Z,26.86
2022-08-03T09:31:44.549Z,26.56
2022-08-03T09:32:43.983Z,24.24
2022-08-03T09:33:43.979Z,25.21
2022-08-03T09:34:43.988Z,27.15
2022-08-03T09:35:53.615Z,25.43
2022-08-03T09:36:44.921Z,27.94
2022-08-03T09:38:11.978Z,29.38
2022-08-03T09:38:44.889Z,28.41
2022-08-03T09:39:43.869Z,30.35
2022-08-03T09:40:43.887Z,29.56
2022-08-03T09:41:43.824Z,28.40
2022-08-03T09:42:43.817Z,29.74
2022-08-03T09:43:43.809Z,29.35
2022-08-03T09:44:43.798Z,28.29
2022-08-03T09:45:43.839Z,25.49
2022-08-03T09:46:43.810Z,28.97
2022-08-03T09:47:45.308Z,27.92
2022-08-03T09:48:43.799Z,26.28
2022-08-03T09:49:43.840Z,28.22
2022-08-03T09:50:58.406Z,26.40
2022-08-03T09:52:32.683Z,27.86
2022-08-03T09:52:49.587Z,25.74
2022-08-03T09:53:59.772Z,27.70
2022-08-03T09:54:44.695Z,26.64
2022-08-03T09:56:36.128Z,27.92
2022-08-03T09:56:44.663Z,28.40
2022-08-03T09:57:43.631Z,28.79
2022-08-03T09:58:43.641Z,30.94
2022-08-03T09:59:43.640Z,31.70
2022-08-03T10:00:43.640Z,30.82
2022-08-03T10:01:43.656Z,31.70
2022-08-03T10:02:43.603Z,29.76
2022-08-03T10:04:03.319Z,31.42
2022-08-03T10:04:44.573Z,32.18
2022-08-03T10:05:43.565Z,32.09
2022-08-03T10:06:43.543Z,31.32
2022-08-03T10:07:45.896Z,32.39
2022-08-03T10:08:43.523Z,31.71
2022-08-03T10:09:43.504Z,29.76
2022-08-03T10:10:43.493Z,30.05
2022-08-03T10:11:43.518Z,31.60
2022-08-03T10:12:43.463Z,31.23
2022-08-03T10:13:43.464Z,31.52
2022-08-03T10:14:43.484Z,27.73
2022-08-03T10:16:22.878Z,30.08
2022-08-03T10:16:44.416Z,29.88
2022-08-03T10:17:43.419Z,31.53
2022-08-03T10:18:43.433Z,32.60
2022-08-03T10:19:43.386Z,33.18
2022-08-03T10:20:43.356Z,31.32
2022-08-03T10:21:43.376Z,30.66
2022-08-03T10:22:43.336Z,29.11
2022-08-03T10:23:43.326Z,27.26
2022-08-03T10:24:43.350Z,28.64
2022-08-03T10:25:43.307Z,28.83
2022-08-03T10:26:49.767Z,28.54
2022-08-03T10:27:44.287Z,27.57
2022-08-03T10:28:45.493Z,27.47
2022-08-03T10:29:43.271Z,27.28
2022-08-03T10:30:43.241Z,27.57
2022-08-03T10:31:57.368Z,28.74
2022-08-03T10:32:44.226Z,27.08
2022-08-03T10:33:51.149Z,28.26
2022-08-03T10:34:44.764Z,27.10
2022-08-03T10:35:43.179Z,27.10
2022-08-03T10:36:43.179Z,27.58
2022-08-03T10:37:43.149Z,28.85
2022-08-03T10:38:44.176Z,27.21
2022-08-03T10:39:43.140Z,27.11
2022-08-03T10:40:52.608Z,29.05
2022-08-03T10:41:44.111Z,28.86
2022-08-03T10:42:43.090Z,27.19
2022-08-03T10:43:43.081Z,27.29
2022-08-03T10:44:43.098Z,27.00
2022-08-03T10:45:43.330Z,26.51
2022-08-03T10:46:45.179Z,26.53
2022-08-03T10:47:43.032Z,27.78
2022-08-03T10:48:43.031Z,26.81
2022-08-03T10:49:43.055Z,26.03
2022-08-03T10:50:42.992Z,25.85
2022-08-03T10:51:43.001Z,28.86
2022-08-03T10:52:45.379Z,31.27
2022-08-03T10:53:47.102Z,31.27
2022-08-03T10:54:43.962Z,31.07
2022-08-03T10:55:42.933Z,28.91
2022-08-03T10:56:47.260Z,28.63
2022-08-03T10:57:43.915Z,25.99
2022-08-03T10:58:53.284Z,27.64
2022-08-03T10:59:43.895Z,29.38
2022-08-03T11:00:42.902Z,27.92
2022-08-03T11:01:58.734Z,29.85
2022-08-03T11:02:43.846Z,28.20
2022-08-03T11:03:42.834Z,30.23
2022-08-03T11:04:42.843Z,29.36
2022-08-03T11:05:42.816Z,33.62
2022-08-03T11:06:42.815Z,29.26
2022-08-03T11:07:42.789Z,29.74
2022-08-03T11:08:42.784Z,26.63
2022-08-03T11:09:42.767Z,29.44
2022-08-03T11:10:42.747Z,30.99
2022-08-03T11:11:42.763Z,30.11
2022-08-03T11:12:42.735Z,26.05
2022-08-03T11:13:42.717Z,26.42
2022-08-03T11:14:42.709Z,24.49
2022-08-03T11:15:42.696Z,29.92
2022-08-03T11:16:42.689Z,24.98
2022-08-03T11:17:46.612Z,23.72
2022-08-03T11:18:43.701Z,30.32
2022-08-03T11:19:57.649Z,28.29
2022-08-03T11:20:43.639Z,26.06
2022-08-03T11:21:42.651Z,27.91
2022-08-03T11:22:42.608Z,25.87
2022-08-03T11:24:04.258Z,25.29
2022-08-03T11:24:43.587Z,28.50
2022-08-03T11:25:54.135Z,29.95
2022-08-03T11:26:43.579Z,28.30
2022-08-03T11:27:42.540Z,26.27
2022-08-03T11:28:42.549Z,28.50
2022-08-03T11:29:42.541Z,29.97
2022-08-03T11:30:42.510Z,29.00
2022-08-03T11:31:50.871Z,31.99
2022-08-03T11:32:46.579Z,28.98
2022-08-03T11:33:42.479Z,30.13
2022-08-03T11:34:42.461Z,28.49
2022-08-03T11:35:42.448Z,28.98
2022-08-03T11:36:42.434Z,30.34
2022-08-03T11:37:42.433Z,30.24
2022-08-03T11:38:43.441Z,25.98
2022-08-03T11:39:42.411Z,26.56
2022-08-03T11:40:42.381Z,27.53
2022-08-03T11:41:44.996Z,26.65
2022-08-03T11:42:42.361Z,28.49
2022-08-03T11:43:42.361Z,30.71
2022-08-03T11:44:42.362Z,29.53
2022-08-03T11:45:43.337Z,31.37
2022-08-03T11:46:42.315Z,29.63
2022-08-03T11:47:50.825Z,25.18
2022-08-03T11:48:43.332Z,24.69
2022-08-03T11:49:42.308Z,28.56
2022-08-03T11:50:42.254Z,29.92
2022-08-03T11:51:42.273Z,27.11
2022-08-03T11:52:42.254Z,25.09
2022-08-03T11:53:42.394Z,29.94
2022-08-03T11:54:42.205Z,28.39
2022-08-03T11:55:42.203Z,25.58
2022-08-03T11:56:42.194Z,25.19
2022-08-03T11:59:16.813Z,24.41
2022-08-03T11:59:18.814Z,28.30
2022-08-03T11:59:43.156Z,31.21
2022-08-03T12:00:42.147Z,27.71
2022-08-03T12:01:42.146Z,26.85
2022-08-03T12:02:42.107Z,29.06
2022-08-03T12:03:42.172Z,27.51
2022-08-03T12:04:42.098Z,25.67
2022-08-03T12:05:42.082Z,24.80
2022-08-03T12:06:47.281Z,28.29
2022-08-03T12:08:03.642Z,31.20
2022-08-03T12:08:43.047Z,31.10
2022-08-03T12:09:42.042Z,29.94
2022-08-03T12:10:42.009Z,30.13
2022-08-03T12:11:50.922Z,30.91
2022-08-03T12:12:46.342Z,30.60
2022-08-03T12:14:27.079Z,29.53
2022-08-03T12:14:50.667Z,29.53
2022-08-03T12:15:43.034Z,31.37
2022-08-03T12:16:41.939Z,30.39
2022-08-03T12:17:41.941Z,28.75
2022-08-03T12:18:41.959Z,29.71
2022-08-03T12:19:41.901Z,29.23
2022-08-03T12:20:41.909Z,27.29
2022-08-03T12:21:41.881Z,28.65
2022-08-03T12:22:42.860Z,30.20
2022-08-03T12:23:41.860Z,26.43
2022-08-03T12:24:41.871Z,32.06
2022-08-03T12:25:41.894Z,29.73
2022-08-03T12:26:41.820Z,29.15
2022-08-03T12:27:41.833Z,25.85
2022-08-03T12:28:44.950Z,25.76
2022-08-03T12:29:42.783Z,24.22
2022-08-03T12:30:42.774Z,24.80
2022-08-03T12:31:41.773Z,23.94
2022-08-03T12:32:41.751Z,27.72
2022-08-03T12:33:41.752Z,27.43
2022-08-03T12:34:46.726Z,24.62
2022-08-03T12:35:52.119Z,23.46
2022-08-03T12:36:42.710Z,24.63
2022-08-03T12:37:41.694Z,27.15
2022-08-03T12:38:41.665Z,25.99
2022-08-03T12:40:02.602Z,26.48
2022-08-03T12:40:42.664Z,27.83
2022-08-03T12:41:41.654Z,25.79
2022-08-03T12:42:41.625Z,24.92
2022-08-03T12:43:41.614Z,24.06
2022-08-03T12:44:41.638Z,25.03
2022-08-03T12:45:41.596Z,28.91
2022-08-03T12:46:45.590Z,26.20
2022-08-03T12:47:42.564Z,26.29
2022-08-03T12:48:41.546Z,30.47
2022-08-03T12:49:41.561Z,28.51
2022-08-03T12:50:41.517Z,25.31
2022-08-03T12:51:41.553Z,24.74
2022-08-03T12:52:41.505Z,24.46
2022-08-03T12:53:41.486Z,25.34